createdAt,value
2023-03-21T00:00:12.306Z,23.24
2023-03-21T00:04:12.454Z,23.23
2023-03-21T00:08:12.478Z,23.22
2023-03-21T00:12:12.501Z,23.22
2023-03-21T00:16:20.765Z,23.22
2023-03-21T00:20:13.565Z,23.23
2023-03-21T00:24:12.496Z,23.22
2023-03-21T00:28:12.460Z,23.22
2023-03-21T00:32:12.420Z,23.22
2023-03-21T00:36:12.804Z,23.22
2023-03-21T00:40:23.004Z,23.22
2023-03-21T00:44:13.400Z,23.22
2023-03-21T00:48:12.430Z,23.22
2023-03-21T00:52:20.163Z,23.22
2023-03-21T00:56:13.295Z,23.22
2023-03-21T01:00:12.218Z,23.22
2023-03-21T01:04:12.191Z,23.21
2023-03-21T01:08:25.101Z,23.21
2023-03-21T01:12:13.123Z,23.21
2023-03-21T01:16:12.097Z,23.21
2023-03-21T01:20:12.033Z,23.20
2023-03-21T01:24:12.002Z,23.22
2023-03-21T01:28:11.957Z,23.21
2023-03-21T01:32:11.928Z,23.20
2023-03-21T01:36:13.542Z,23.20
2023-03-21T01:40:12.134Z,23.20
2023-03-21T01:44:12.229Z,23.20
2023-03-21T01:48:12.407Z,23.20
2023-03-21T01:52:21.020Z,23.20
2023-03-21T01:56:13.418Z,23.19
2023-03-21T02:00:12.319Z,23.18
2023-03-21T02:04:12.349Z,23.19
2023-03-21T02:08:12.242Z,23.19
2023-03-21T02:12:12.262Z,23.18
2023-03-21T02:16:12.363Z,23.19
2023-03-21T02:20:12.481Z,23.19
2023-03-21T02:24:12.551Z,23.19
2023-03-21T02:28:12.649Z,23.19
2023-03-21T02:32:22.690Z,23.19
2023-03-21T02:36:14.755Z,23.18
2023-03-21T02:40:12.662Z,23.19
2023-03-21T02:44:12.659Z,23.18
2023-03-21T02:48:25.417Z,23.18
2023-03-21T02:52:17.154Z,23.18
2023-03-21T02:56:13.672Z,23.17
2023-03-21T03:00:16.560Z,23.18
2023-03-21T03:04:12.606Z,23.18
2023-03-21T03:08:12.577Z,23.18
2023-03-21T03:12:12.655Z,23.18
2023-03-21T03:16:12.548Z,23.17
2023-03-21T03:20:16.421Z,23.18
2023-03-21T03:24:12.408Z,23.18
2023-03-21T03:28:12.388Z,23.18
2023-03-21T03:32:12.354Z,23.17
2023-03-21T03:36:18.845Z,23.17
2023-03-21T03:40:13.287Z,23.17
2023-03-21T03:44:12.253Z,23.16
2023-03-21T03:48:12.192Z,23.17
2023-03-21T03:52:12.161Z,23.17
2023-03-21T03:56:12.135Z,23.17
2023-03-21T04:00:12.235Z,23.17
2023-03-21T04:04:13.651Z,23.16
2023-03-21T04:08:12.359Z,23.17
2023-03-21T04:12:12.432Z,23.16
2023-03-21T04:16:12.554Z,23.16
2023-03-21T04:20:20.725Z,23.16
2023-03-21T04:24:13.594Z,23.16
2023-03-21T04:28:12.552Z,23.16
2023-03-21T04:32:12.625Z,23.16
2023-03-21T04:36:12.513Z,23.17
2023-03-21T04:40:12.442Z,23.16
2023-03-21T04:44:12.508Z,23.16
2023-03-21T04:48:12.621Z,23.16
2023-03-21T04:52:12.683Z,23.16
2023-03-21T04:56:12.786Z,23.16
2023-03-21T05:00:12.862Z,23.16
2023-03-21T05:04:12.987Z,23.16
2023-03-21T05:08:13.009Z,23.16
2023-03-21T05:12:13.095Z,23.16
2023-03-21T05:16:13.260Z,23.16
2023-03-21T05:20:13.288Z,23.16
2023-03-21T05:24:13.351Z,23.16
2023-03-21T05:28:13.437Z,23.16
2023-03-21T05:32:13.505Z,23.16
2023-03-21T05:36:13.612Z,23.17
2023-03-21T05:40:13.676Z,23.17
2023-03-21T05:44:13.745Z,23.18
2023-03-21T05:48:13.874Z,23.19
2023-03-21T05:52:13.931Z,23.20
2023-03-21T05:56:14.016Z,23.20
2023-03-21T06:00:14.085Z,23.21
2023-03-21T06:04:14.193Z,23.26
2023-03-21T06:08:14.226Z,23.29
2023-03-21T06:12:14.690Z,23.32
2023-03-21T06:16:14.348Z,23.36
2023-03-21T06:20:14.679Z,23.39
2023-03-21T06:24:14.382Z,23.40
2023-03-21T06:28:14.664Z,23.43
2023-03-21T06:32:14.696Z,23.48
2023-03-21T06:36:14.496Z,23.63
2023-03-21T06:40:14.674Z,23.85
2023-03-21T06:44:14.709Z,24.02
2023-03-21T06:48:14.628Z,24.12
2023-03-21T06:52:14.557Z,24.21
2023-03-21T06:56:14.512Z,24.30
2023-03-21T07:00:14.522Z,24.35
2023-03-21T07:04:14.452Z,24.39
2023-03-21T07:08:14.445Z,24.40
2023-03-21T07:12:14.389Z,24.43
2023-03-21T07:16:14.487Z,24.45
2023-03-21T07:20:14.397Z,24.47
2023-03-21T07:24:14.279Z,24.47
2023-03-21T07:28:14.269Z,24.49
2023-03-21T07:32:14.758Z,24.26
2023-03-21T07:36:14.167Z,24.25
2023-03-21T07:40:15.270Z,24.36
2023-03-21T07:44:14.330Z,24.48
2023-03-21T07:48:14.766Z,24.55
2023-03-21T07:52:14.731Z,24.63
2023-03-21T07:56:14.540Z,24.69
2023-03-21T08:00:14.568Z,24.73
2023-03-21T08:04:14.728Z,24.77
2023-03-21T08:08:14.614Z,24.80
2023-03-21T08:12:14.594Z,24.84
2023-03-21T08:16:14.543Z,24.88
2023-03-21T08:20:14.551Z,24.90
2023-03-21T08:24:14.614Z,24.92
2023-03-21T08:28:14.725Z,24.82
2023-03-21T08:32:14.735Z,24.71
2023-03-21T08:36:15.241Z,24.79
2023-03-21T08:40:15.244Z,24.88
2023-03-21T08:44:15.239Z,24.93
2023-03-21T08:48:14.904Z,24.98
2023-03-21T08:52:14.861Z,25.00
2023-03-21T08:56:14.831Z,25.03
2023-03-21T09:00:15.025Z,25.09
2023-03-21T09:04:15.132Z,25.11
2023-03-21T09:08:15.260Z,25.12
2023-03-21T09:12:15.748Z,25.18
2023-03-21T09:16:15.439Z,25.20
2023-03-21T09:20:15.369Z,25.25
2023-03-21T09:24:15.776Z,25.23
2023-03-21T09:28:15.310Z,25.15
2023-03-21T09:32:15.258Z,25.03
2023-03-21T09:36:15.269Z,24.88
2023-03-21T09:40:15.202Z,24.94
2023-03-21T09:44:15.162Z,25.03
2023-03-21T09:48:15.511Z,25.08
2023-03-21T09:52:15.087Z,25.11
2023-03-21T09:56:15.110Z,25.11
2023-03-21T10:00:15.014Z,25.14
2023-03-21T10:04:15.284Z,25.17
2023-03-21T10:08:15.326Z,25.20
2023-03-21T10:12:15.295Z,25.18
2023-03-21T10:16:15.385Z,25.21
2023-03-21T10:20:15.307Z,25.20
2023-03-21T10:24:15.818Z,25.21
2023-03-21T10:28:15.823Z,25.22
2023-03-21T10:32:16.266Z,25.20
2023-03-21T10:36:15.944Z,25.16
2023-03-21T10:40:16.279Z,25.09
2023-03-21T10:44:16.090Z,25.00
2023-03-21T10:48:16.462Z,24.94
2023-03-21T10:52:16.281Z,24.93
2023-03-21T10:56:16.073Z,24.96
2023-03-21T11:00:16.072Z,24.95
2023-03-21T11:04:16.027Z,24.96
2023-03-21T11:08:16.068Z,25.01
2023-03-21T11:12:16.044Z,25.07
2023-03-21T11:16:16.147Z,25.18
2023-03-21T11:20:16.330Z,25.24
2023-03-21T11:24:16.815Z,25.20
2023-03-21T11:28:16.465Z,25.06
2023-03-21T11:32:16.469Z,24.74
2023-03-21T11:36:16.609Z,24.72
2023-03-21T11:40:16.662Z,24.81
2023-03-21T11:44:16.622Z,24.93
2023-03-21T11:48:16.624Z,25.02
2023-03-21T11:52:16.580Z,25.04
2023-03-21T11:56:16.630Z,25.05
2023-03-21T12:00:16.734Z,25.03
2023-03-21T12:04:16.766Z,24.98
2023-03-21T12:08:16.706Z,24.93
2023-03-21T12:12:18.613Z,24.86
2023-03-21T12:16:17.480Z,24.66
2023-03-21T12:20:16.689Z,24.21
2023-03-21T12:24:16.827Z,23.85
2023-03-21T12:28:21.303Z,23.47
2023-03-21T12:32:17.660Z,23.15
2023-03-21T12:36:16.638Z,22.92
2023-03-21T12:40:16.699Z,22.85
2023-03-21T12:44:16.837Z,22.86
2023-03-21T12:48:17.181Z,22.69
2023-03-21T12:52:17.141Z,22.42
2023-03-21T12:56:17.113Z,22.56
2023-03-21T13:00:17.039Z,22.85
2023-03-21T13:04:17.500Z,23.09
2023-03-21T13:08:17.331Z,23.26
2023-03-21T13:12:17.022Z,23.37
2023-03-21T13:16:16.951Z,23.48
2023-03-21T13:20:17.418Z,23.56
2023-03-21T13:24:16.862Z,23.61
2023-03-21T13:28:16.775Z,23.65
2023-03-21T13:32:16.839Z,23.69
2023-03-21T13:36:16.762Z,23.72
2023-03-21T13:40:16.698Z,23.73
2023-03-21T13:44:16.657Z,23.75
2023-03-21T13:48:16.651Z,23.76
2023-03-21T13:52:16.708Z,23.78
2023-03-21T13:56:16.545Z,23.78
2023-03-21T14:00:16.846Z,23.79
2023-03-21T14:04:16.684Z,23.79
2023-03-21T14:08:24.841Z,23.78
2023-03-21T14:12:17.890Z,23.78
2023-03-21T14:16:16.760Z,23.77
2023-03-21T14:20:16.925Z,23.76
2023-03-21T14:24:17.183Z,23.76
2023-03-21T14:28:17.218Z,23.75
2023-03-21T14:32:17.349Z,23.74
2023-03-21T14:36:17.569Z,23.73
2023-03-21T14:40:17.974Z,23.72
2023-03-21T14:44:17.860Z,23.71
2023-03-21T14:48:17.815Z,23.70
2023-03-21T14:52:17.919Z,23.70
2023-03-21T14:56:18.031Z,23.69
2023-03-21T15:00:18.028Z,23.68
2023-03-21T15:04:18.380Z,23.68
2023-03-21T15:08:18.194Z,23.67
2023-03-21T15:12:18.298Z,23.66
2023-03-21T15:16:18.364Z,23.65
2023-03-21T15:20:18.224Z,23.64
2023-03-21T15:24:18.192Z,23.63
2023-03-21T15:28:18.247Z,23.62
2023-03-21T15:32:18.184Z,23.64
2023-03-21T15:36:18.161Z,23.65
2023-03-21T15:40:18.139Z,23.65
2023-03-21T15:44:18.188Z,23.66
2023-03-21T15:48:18.100Z,23.63
2023-03-21T15:52:18.093Z,23.63
2023-03-21T15:56:18.047Z,23.63
2023-03-21T16:00:18.121Z,23.63
2023-03-21T16:04:18.011Z,23.62
2023-03-21T16:08:17.993Z,23.62
2023-03-21T16:12:19.029Z,23.61
2023-03-21T16:16:17.979Z,23.59
2023-03-21T16:20:18.418Z,23.58
2023-03-21T16:24:17.876Z,23.57
2023-03-21T16:28:17.879Z,23.56
2023-03-21T16:32:17.873Z,23.55
2023-03-21T16:36:17.918Z,23.53
2023-03-21T16:40:17.958Z,23.52
2023-03-21T16:44:17.870Z,23.51
2023-03-21T16:48:17.943Z,23.48
2023-03-21T16:52:17.863Z,23.47
2023-03-21T16:56:17.864Z,23.46
2023-03-21T17:00:17.905Z,23.45
2023-03-21T17:04:18.004Z,23.45
2023-03-21T17:08:17.894Z,23.43
2023-03-21T17:12:17.871Z,23.43
2023-03-21T17:16:17.934Z,23.43
2023-03-21T17:20:17.958Z,23.42
2023-03-21T17:24:17.903Z,23.41
2023-03-21T17:28:17.909Z,23.41
2023-03-21T17:32:17.935Z,23.40
2023-03-21T17:36:17.891Z,23.40
2023-03-21T17:40:17.934Z,23.39
2023-03-21T17:44:17.916Z,23.39
2023-03-21T17:48:17.962Z,23.39
2023-03-21T17:52:17.930Z,23.39
2023-03-21T18:00:37.141Z,23.36
2023-03-21T18:04:36.782Z,23.37
2023-03-21T18:08:36.692Z,23.37
2023-03-21T18:12:36.987Z,23.37
2023-03-21T18:16:36.675Z,23.37
2023-03-21T18:20:53.945Z,23.36
2023-03-21T18:24:37.546Z,23.36
2023-03-21T18:28:36.499Z,23.36
2023-03-21T18:32:36.507Z,23.35
2023-03-21T18:36:36.678Z,23.35
2023-03-21T18:40:37.015Z,23.34
2023-03-21T18:44:36.617Z,23.34
2023-03-21T18:48:36.654Z,23.35
2023-03-21T18:52:36.713Z,23.34
2023-03-21T18:57:27.254Z,23.34
2023-03-21T19:00:37.914Z,23.33
2023-03-21T19:04:37.485Z,23.33
2023-03-21T19:08:37.001Z,23.34
2023-03-21T19:12:36.501Z,23.33
2023-03-21T19:16:58.890Z,23.33
2023-03-21T19:20:37.799Z,23.32
2023-03-21T19:24:36.722Z,23.32
2023-03-21T19:28:36.354Z,23.33
2023-03-21T19:32:36.317Z,23.32
2023-03-21T19:36:36.404Z,23.32
2023-03-21T19:40:36.589Z,23.32
2023-03-21T19:44:36.454Z,23.31
2023-03-21T19:48:37.147Z,23.31
2023-03-21T19:52:36.483Z,23.31
2023-03-21T19:56:37.654Z,23.30
2023-03-21T20:00:36.687Z,23.30
2023-03-21T20:04:36.589Z,23.30
2023-03-21T20:09:05.392Z,23.29
2023-03-21T20:12:37.631Z,23.29
2023-03-21T20:16:36.703Z,23.30
2023-03-21T20:20:36.730Z,23.29
2023-03-21T20:24:36.484Z,23.29
2023-03-21T20:28:38.125Z,23.29
2023-03-21T20:32:36.416Z,23.29
2023-03-21T20:36:41.323Z,23.28
2023-03-21T20:40:37.678Z,23.28
2023-03-21T20:45:00.594Z,23.28
2023-03-21T20:48:37.265Z,23.28
2023-03-21T20:56:37.201Z,23.28
2023-03-21T21:00:36.351Z,23.27
2023-03-21T21:05:03.538Z,23.28
2023-03-21T21:08:37.098Z,23.27
2023-03-21T21:12:36.050Z,23.27
2023-03-21T21:16:35.996Z,23.27
2023-03-21T21:20:36.143Z,23.27
2023-03-21T21:24:35.923Z,23.27
2023-03-21T21:28:35.894Z,23.26
2023-03-21T21:32:35.858Z,23.26
2023-03-21T21:36:35.823Z,23.26
2023-03-21T21:40:35.911Z,23.26
2023-03-21T21:44:35.762Z,23.26
2023-03-21T21:48:35.750Z,23.26
2023-03-21T21:52:35.707Z,23.26
2023-03-21T21:56:37.905Z,23.26
2023-03-21T22:00:35.813Z,23.25
2023-03-21T22:04:35.702Z,23.26
2023-03-21T22:08:35.663Z,23.26
2023-03-21T22:12:35.669Z,23.25
2023-03-21T22:16:35.686Z,23.24
2023-03-21T22:20:35.595Z,23.25
2023-03-21T22:24:35.590Z,23.25
2023-03-21T22:28:35.579Z,23.25
2023-03-21T22:32:35.626Z,23.25
2023-03-21T22:36:35.533Z,23.24
2023-03-21T22:40:35.535Z,23.24
2023-03-21T22:44:35.522Z,23.24
2023-03-21T22:48:35.487Z,23.24
2023-03-21T22:52:35.496Z,23.24
2023-03-21T22:56:35.491Z,23.24
2023-03-21T23:00:35.484Z,23.24
2023-03-21T23:04:35.495Z,23.24
2023-03-21T23:08:35.453Z,23.24
2023-03-21T23:12:35.457Z,23.24
2023-03-21T23:16:35.457Z,23.24
2023-03-21T23:20:35.472Z,23.23
2023-03-21T23:24:35.457Z,23.24
2023-03-21T23:28:35.484Z,23.23
2023-03-21T23:32:35.445Z,23.23
2023-03-21T23:36:35.435Z,23.22
2023-03-21T23:40:35.454Z,23.23
2023-03-21T23:44:35.379Z,23.22
2023-03-21T23:48:35.376Z,23.23
2023-03-21T23:52:35.368Z,23.22
2023-03-21T23:56:35.404Z,23.22
